sensor_id;sensor_type;location;lat;lon;timestamp;temperature;humidity
48988;DHT22;34799;51.440;-2.534;2022-08-21T00:02:20;17.90;99.90
48988;DHT22;34799;51.440;-2.534;2022-08-21T00:04:48;17.90;99.90
48988;DHT22;34799;51.440;-2.534;2022-08-21T00:07:15;17.90;99.90
48988;DHT22;34799;51.440;-2.534;2022-08-21T00:09:43;17.80;99.90
48988;DHT22;34799;51.440;-2.534;2022-08-21T00:12:10;17.90;99.90
48988;DHT22;34799;51.440;-2.534;2022-08-21T00:14:38;17.80;99.90
48988;DHT22;34799;51.440;-2.534;2022-08-21T00:17:06;17.70;99.90
48988;DHT22;34799;51.440;-2.534;2022-08-21T00:19:33;17.70;99.90
48988;DHT22;34799;51.440;-2.534;2022-08-21T00:22:00;17.70;99.90
48988;DHT22;34799;51.440;-2.534;2022-08-21T00:24:27;17.60;99.90
48988;DHT22;34799;51.440;-2.534;2022-08-21T00:26:54;17.50;99.90
48988;DHT22;34799;51.440;-2.534;2022-08-21T00:29:22;17.50;99.90
48988;DHT22;34799;51.440;-2.534;2022-08-21T00:31:49;17.50;99.90
48988;DHT22;34799;51.440;-2.534;2022-08-21T00:34:17;17.40;99.90
48988;DHT22;34799;51.440;-2.534;2022-08-21T00:36:44;17.50;99.90
48988;DHT22;34799;51.440;-2.534;2022-08-21T00:39:11;17.40;99.90
48988;DHT22;34799;51.440;-2.534;2022-08-21T00:41:40;17.40;99.90
48988;DHT22;34799;51.440;-2.534;2022-08-21T00:44:10;17.40;99.90
48988;DHT22;34799;51.440;-2.534;2022-08-21T00:46:38;17.40;99.90
48988;DHT22;34799;51.440;-2.534;2022-08-21T00:49:07;17.40;99.90
48988;DHT22;34799;51.440;-2.534;2022-08-21T00:51:42;17.30;99.90
48988;DHT22;34799;51.440;-2.534;2022-08-21T00:54:10;17.30;99.90
48988;DHT22;34799;51.440;-2.534;2022-08-21T00:56:39;17.30;99.90
48988;DHT22;34799;51.440;-2.534;2022-08-21T00:59:07;17.20;99.90
48988;DHT22;34799;51.440;-2.534;2022-08-21T01:01:35;17.20;99.90
48988;DHT22;34799;51.440;-2.534;2022-08-21T01:04:03;17.20;99.90
48988;DHT22;34799;51.440;-2.534;2022-08-21T01:06:30;17.20;99.90
48988;DHT22;34799;51.440;-2.534;2022-08-21T01:08:57;17.20;99.90
48988;DHT22;34799;51.440;-2.534;2022-08-21T01:11:25;17.10;99.90
48988;DHT22;34799;51.440;-2.534;2022-08-21T01:13:52;17.10;99.90
48988;DHT22;34799;51.440;-2.534;2022-08-21T01:16:21;17.10;99.90
48988;DHT22;34799;51.440;-2.534;2022-08-21T01:18:49;17.20;99.90
48988;DHT22;34799;51.440;-2.534;2022-08-21T01:21:22;17.20;99.90
48988;DHT22;34799;51.440;-2.534;2022-08-21T01:23:52;17.10;99.90
48988;DHT22;34799;51.440;-2.534;2022-08-21T01:26:24;17.10;99.90
48988;DHT22;34799;51.440;-2.534;2022-08-21T01:29:16;17.10;99.90
48988;DHT22;34799;51.440;-2.534;2022-08-21T01:31:47;17.10;99.90
48988;DHT22;34799;51.440;-2.534;2022-08-21T01:34:14;17.00;99.90
48988;DHT22;34799;51.440;-2.534;2022-08-21T01:36:44;17.00;99.90
48988;DHT22;34799;51.440;-2.534;2022-08-21T01:39:13;17.10;99.90
48988;DHT22;34799;51.440;-2.534;2022-08-21T01:41:41;17.10;99.90
48988;DHT22;34799;51.440;-2.534;2022-08-21T01:44:08;17.00;99.90
48988;DHT22;34799;51.440;-2.534;2022-08-21T01:46:35;17.10;99.90
48988;DHT22;34799;51.440;-2.534;2022-08-21T01:49:05;17.10;99.90
48988;DHT22;34799;51.440;-2.534;2022-08-21T01:51:32;17.00;99.90
48988;DHT22;34799;51.440;-2.534;2022-08-21T01:53:59;16.10;99.90
48988;DHT22;34799;51.440;-2.534;2022-08-21T01:56:26;17.10;99.90
48988;DHT22;34799;51.440;-2.534;2022-08-21T01:58:54;17.10;99.90
48988;DHT22;34799;51.440;-2.534;2022-08-21T02:01:22;17.10;99.90
48988;DHT22;34799;51.440;-2.534;2022-08-21T02:03:49;17.10;99.90
48988;DHT22;34799;51.440;-2.534;2022-08-21T02:06:16;17.20;99.90
48988;DHT22;34799;51.440;-2.534;2022-08-21T02:08:45;17.00;99.90
48988;DHT22;34799;51.440;-2.534;2022-08-21T02:11:12;17.00;99.90
48988;DHT22;34799;51.440;-2.534;2022-08-21T02:13:41;17.50;99.90
48988;DHT22;34799;51.440;-2.534;2022-08-21T02:16:08;16.90;99.90
48988;DHT22;34799;51.440;-2.534;2022-08-21T02:18:35;17.00;99.90
48988;DHT22;34799;51.440;-2.534;2022-08-21T02:21:04;16.90;99.90
48988;DHT22;34799;51.440;-2.534;2022-08-21T06:09:16;17.00;99.90
48988;DHT22;34799;51.440;-2.534;2022-08-21T06:44:20;17.20;99.90
48988;DHT22;34799;51.440;-2.534;2022-08-21T11:28:13;22.30;97.40
48988;DHT22;34799;51.440;-2.534;2022-08-21T11:58:21;23.10;97.00
48988;DHT22;34799;51.440;-2.534;2022-08-21T16:41:44;23.60;98.20
48988;DHT22;34799;51.440;-2.534;2022-08-21T16:44:20;23.60;98.30
48988;DHT22;34799;51.440;-2.534;2022-08-21T16:46:49;23.50;98.30
48988;DHT22;34799;51.440;-2.534;2022-08-21T16:49:23;23.60;98.90
48988;DHT22;34799;51.440;-2.534;2022-08-21T16:52:02;23.70;98.60
48988;DHT22;34799;51.440;-2.534;2022-08-21T16:54:31;23.40;98.40
48988;DHT22;34799;51.440;-2.534;2022-08-21T16:57:21;23.40;98.30
48988;DHT22;34799;51.440;-2.534;2022-08-21T16:59:50;23.60;98.70
48988;DHT22;34799;51.440;-2.534;2022-08-21T17:02:37;23.00;98.20
48988;DHT22;34799;51.440;-2.534;2022-08-21T17:05:06;23.50;98.40
48988;DHT22;34799;51.440;-2.534;2022-08-21T17:07:33;23.40;98.30
48988;DHT22;34799;51.440;-2.534;2022-08-21T17:10:08;23.30;98.40
48988;DHT22;34799;51.440;-2.534;2022-08-21T17:12:36;23.40;98.60
48988;DHT22;34799;51.440;-2.534;2022-08-21T17:20:17;23.40;98.60
48988;DHT22;34799;51.440;-2.534;2022-08-21T17:22:46;23.50;99.90
48988;DHT22;34799;51.440;-2.534;2022-08-21T17:25:14;23.30;99.90
48988;DHT22;34799;51.440;-2.534;2022-08-21T17:27:55;23.20;99.90
48988;DHT22;34799;51.440;-2.534;2022-08-21T17:30:23;22.70;99.90
48988;DHT22;34799;51.440;-2.534;2022-08-21T17:32:56;23.10;99.90
48988;DHT22;34799;51.440;-2.534;2022-08-21T17:35:24;23.00;99.90
48988;DHT22;34799;51.440;-2.534;2022-08-21T17:37:54;23.00;99.90
48988;DHT22;34799;51.440;-2.534;2022-08-21T17:40:22;22.80;99.90
48988;DHT22;34799;51.440;-2.534;2022-08-21T17:42:56;22.80;99.90
48988;DHT22;34799;51.440;-2.534;2022-08-21T17:45:26;21.70;99.90
48988;DHT22;34799;51.440;-2.534;2022-08-21T17:47:57;21.30;99.90
48988;DHT22;34799;51.440;-2.534;2022-08-21T17:50:24;22.60;99.90
48988;DHT22;34799;51.440;-2.534;2022-08-21T17:53:00;22.60;99.90
48988;DHT22;34799;51.440;-2.534;2022-08-21T17:55:32;22.40;99.90
48988;DHT22;34799;51.440;-2.534;2022-08-21T17:58:01;22.60;99.90
48988;DHT22;34799;51.440;-2.534;2022-08-21T18:00:41;22.50;99.90
48988;DHT22;34799;51.440;-2.534;2022-08-21T18:03:14;22.30;99.90
48988;DHT22;34799;51.440;-2.534;2022-08-21T18:05:47;22.30;99.90
48988;DHT22;34799;51.440;-2.534;2022-08-21T18:08:16;23.40;99.90
48988;DHT22;34799;51.440;-2.534;2022-08-21T18:10:46;24.10;99.90
48988;DHT22;34799;51.440;-2.534;2022-08-21T18:13:16;22.00;99.90
48988;DHT22;34799;51.440;-2.534;2022-08-21T18:15:49;22.00;99.90
48988;DHT22;34799;51.440;-2.534;2022-08-21T18:18:17;22.00;99.90
48988;DHT22;34799;51.440;-2.534;2022-08-21T18:20:49;21.90;99.90
48988;DHT22;34799;51.440;-2.534;2022-08-21T18:23:22;22.00;99.90
48988;DHT22;34799;51.440;-2.534;2022-08-21T18:25:54;22.10;99.90
48988;DHT22;34799;51.440;-2.534;2022-08-21T18:28:24;22.00;99.90
48988;DHT22;34799;51.440;-2.534;2022-08-21T18:31:15;22.20;99.90
48988;DHT22;34799;51.440;-2.534;2022-08-21T18:34:25;22.00;99.90
48988;DHT22;34799;51.440;-2.534;2022-08-21T18:36:55;22.10;99.90
48988;DHT22;34799;51.440;-2.534;2022-08-21T18:39:28;21.80;99.90
48988;DHT22;34799;51.440;-2.534;2022-08-21T18:42:14;21.90;99.90
48988;DHT22;34799;51.440;-2.534;2022-08-21T18:44:46;21.90;99.90
48988;DHT22;34799;51.440;-2.534;2022-08-21T18:47:30;21.80;99.90
48988;DHT22;34799;51.440;-2.534;2022-08-21T18:57:17;21.60;99.90
48988;DHT22;34799;51.440;-2.534;2022-08-21T18:59:45;21.70;99.90
48988;DHT22;34799;51.440;-2.534;2022-08-21T19:02:12;21.70;99.90
48988;DHT22;34799;51.440;-2.534;2022-08-21T19:04:47;21.60;99.90
48988;DHT22;34799;51.440;-2.534;2022-08-21T19:07:16;21.50;99.90
48988;DHT22;34799;51.440;-2.534;2022-08-21T19:09:48;21.50;99.90
48988;DHT22;34799;51.440;-2.534;2022-08-21T19:12:33;20.60;99.90
48988;DHT22;34799;51.440;-2.534;2022-08-21T19:15:29;21.50;99.90
48988;DHT22;34799;51.440;-2.534;2022-08-21T19:18:15;20.30;99.90
48988;DHT22;34799;51.440;-2.534;2022-08-21T19:20:54;21.30;99.90
48988;DHT22;34799;51.440;-2.534;2022-08-21T19:23:25;21.40;99.90
48988;DHT22;34799;51.440;-2.534;2022-08-21T19:26:05;21.40;99.90
48988;DHT22;34799;51.440;-2.534;2022-08-21T19:28:58;21.70;99.90
48988;DHT22;34799;51.440;-2.534;2022-08-21T19:31:37;21.20;99.90
48988;DHT22;34799;51.440;-2.534;2022-08-21T19:34:24;21.30;99.90
48988;DHT22;34799;51.440;-2.534;2022-08-21T19:37:00;22.40;99.90
48988;DHT22;34799;51.440;-2.534;2022-08-21T19:39:31;21.50;99.90
48988;DHT22;34799;51.440;-2.534;2022-08-21T19:42:12;21.30;99.90
48988;DHT22;34799;51.440;-2.534;2022-08-21T19:44:54;21.30;99.90
48988;DHT22;34799;51.440;-2.534;2022-08-21T19:47:23;22.80;99.90
48988;DHT22;34799;51.440;-2.534;2022-08-21T19:49:55;20.50;99.90
48988;DHT22;34799;51.440;-2.534;2022-08-21T19:52:26;21.10;99.90
48988;DHT22;34799;51.440;-2.534;2022-08-21T19:55:05;20.10;99.90
48988;DHT22;34799;51.440;-2.534;2022-08-21T19:57:36;20.90;99.90
48988;DHT22;34799;51.440;-2.534;2022-08-21T20:00:08;21.20;99.90
48988;DHT22;34799;51.440;-2.534;2022-08-21T20:02:38;21.10;99.90
48988;DHT22;34799;51.440;-2.534;2022-08-21T20:05:12;21.30;99.90
48988;DHT22;34799;51.440;-2.534;2022-08-21T20:07:44;21.00;99.90
48988;DHT22;34799;51.440;-2.534;2022-08-21T20:10:12;21.30;99.90
48988;DHT22;34799;51.440;-2.534;2022-08-21T20:12:43;21.00;99.90
48988;DHT22;34799;51.440;-2.534;2022-08-21T20:15:16;21.10;99.90
48988;DHT22;34799;51.440;-2.534;2022-08-21T20:17:44;21.00;99.90
48988;DHT22;34799;51.440;-2.534;2022-08-21T20:20:13;21.00;99.90
48988;DHT22;34799;51.440;-2.534;2022-08-21T20:22:43;20.80;99.90
48988;DHT22;34799;51.440;-2.534;2022-08-21T20:25:11;20.90;99.90
48988;DHT22;34799;51.440;-2.534;2022-08-21T20:27:40;21.00;99.90
48988;DHT22;34799;51.440;-2.534;2022-08-21T20:30:11;20.80;99.90
48988;DHT22;34799;51.440;-2.534;2022-08-21T20:32:41;20.80;99.90
48988;DHT22;34799;51.440;-2.534;2022-08-21T20:35:16;20.70;99.90
48988;DHT22;34799;51.440;-2.534;2022-08-21T20:37:44;22.50;99.90
48988;DHT22;34799;51.440;-2.534;2022-08-21T20:40:15;20.70;99.90
48988;DHT22;34799;51.440;-2.534;2022-08-21T20:42:51;20.50;99.90
48988;DHT22;34799;51.440;-2.534;2022-08-21T20:45:28;20.80;99.90
48988;DHT22;34799;51.440;-2.534;2022-08-21T20:48:06;20.40;99.90
48988;DHT22;34799;51.440;-2.534;2022-08-21T20:50:42;20.40;99.90
48988;DHT22;34799;51.440;-2.534;2022-08-21T20:53:36;19.90;99.90
48988;DHT22;34799;51.440;-2.534;2022-08-21T20:56:42;20.40;99.90
48988;DHT22;34799;51.440;-2.534;2022-08-21T20:59:44;20.90;99.90
48988;DHT22;34799;51.440;-2.534;2022-08-21T21:05:27;20.30;99.90
48988;DHT22;34799;51.440;-2.534;2022-08-21T21:11:20;20.20;99.90
48988;DHT22;34799;51.440;-2.534;2022-08-21T21:14:14;20.00;99.90
48988;DHT22;34799;51.440;-2.534;2022-08-21T21:16:47;20.10;99.90
48988;DHT22;34799;51.440;-2.534;2022-08-21T21:19:28;20.20;99.90
48988;DHT22;34799;51.440;-2.534;2022-08-21T21:22:06;19.90;99.90
48988;DHT22;34799;51.440;-2.534;2022-08-21T21:25:30;19.90;99.90
48988;DHT22;34799;51.440;-2.534;2022-08-21T21:28:05;19.80;99.90
48988;DHT22;34799;51.440;-2.534;2022-08-21T21:30:42;20.10;99.90
48988;DHT22;34799;51.440;-2.534;2022-08-21T21:33:11;20.00;99.90
48988;DHT22;34799;51.440;-2.534;2022-08-21T21:35:58;19.70;99.90
48988;DHT22;34799;51.440;-2.534;2022-08-21T21:43:59;19.50;99.90
48988;DHT22;34799;51.440;-2.534;2022-08-21T21:52:31;19.40;99.90
48988;DHT22;34799;51.440;-2.534;2022-08-21T22:00:27;19.50;99.90
48988;DHT22;34799;51.440;-2.534;2022-08-21T22:03:24;19.30;99.90
48988;DHT22;34799;51.440;-2.534;2022-08-21T22:37:45;18.80;99.90
48988;DHT22;34799;51.440;-2.534;2022-08-21T22:40:23;18.90;99.90
48988;DHT22;34799;51.440;-2.534;2022-08-21T22:46:22;18.70;99.90
48988;DHT22;34799;51.440;-2.534;2022-08-21T22:48:31;18.80;99.90
48988;DHT22;34799;51.440;-2.534;2022-08-21T22:51:04;18.90;99.90
48988;DHT22;34799;51.440;-2.534;2022-08-21T22:53:36;18.70;99.90
48988;DHT22;34799;51.440;-2.534;2022-08-21T22:56:09;18.70;99.90
48988;DHT22;34799;51.440;-2.534;2022-08-21T22:58:57;18.90;99.90
48988;DHT22;34799;51.440;-2.534;2022-08-21T23:04:11;18.50;99.90
48988;DHT22;34799;51.440;-2.534;2022-08-21T23:06:45;18.50;99.90
48988;DHT22;34799;51.440;-2.534;2022-08-21T23:09:36;18.60;99.90
48988;DHT22;34799;51.440;-2.534;2022-08-21T23:12:14;18.50;99.90
48988;DHT22;34799;51.440;-2.534;2022-08-21T23:14:50;18.40;99.90
48988;DHT22;34799;51.440;-2.534;2022-08-21T23:20:33;18.30;99.90
48988;DHT22;34799;51.440;-2.534;2022-08-21T23:23:12;18.20;99.90
48988;DHT22;34799;51.440;-2.534;2022-08-21T23:31:28;17.90;99.90
48988;DHT22;34799;51.440;-2.534;2022-08-21T23:40:14;18.20;99.90
48988;DHT22;34799;51.440;-2.534;2022-08-21T23:48:14;18.00;99.90
48988;DHT22;34799;51.440;-2.534;2022-08-21T23:50:59;17.80;99.90
48988;DHT22;34799;51.440;-2.534;2022-08-21T23:57:03;18.00;99.90
